Airports United Kingdom George Best Belfast City Airport

George Best Belfast City Airport (EGAC / BHD)

Facts about George Best Belfast City Airport

Name George Best Belfast City Airport
City Belfast
Country United Kingdom
ICAO code EGAC
IATA code BHD
Elevation 4.5720 meters (15 feet)

Weather

METAR

Metar data retrieved Friday, 19 July 2024 at 22:55 UTC (24 minutes ago)

EGAC 192220Z AUTO 16007KT 9999 NCD 16/14 Q1008

Live traffic

Navigraph Charts (account required)